Time;durP1;ratioP1;P1;durP2;ratioP2;P2;SDS_P1;SDS_P2;PMS_P1;PMS_P2;Temp;Humidity;BMP_temperature;BMP_pressure;BME280_temperature;BME280_humidity;BME280_pressure;Samples;Min_cycle;Max_cycle;Signal;HPM_P1;HPM_P2
2021/10/21 00:01:55;;;;;;;4.22;2.55;;;9.60;99.90;;;;;;4776467;30;20067;-83
2021/10/21 00:04:24;;;;;;;3.55;3.10;;;9.70;99.90;;;;;;4764418;30;20044;-83
2021/10/21 00:06:52;;;;;;;3.85;3.35;;;9.80;99.90;;;;;;4747142;30;20047;-83
2021/10/21 00:09:20;;;;;;;3.33;2.92;;;10.00;99.90;;;;;;4792898;29;20047;-84
2021/10/21 00:11:47;;;;;;;3.05;2.70;;;10.00;99.90;;;;;;4775304;30;20481;-80
2021/10/21 00:14:15;;;;;;;6.15;3.40;;;9.90;99.90;;;;;;4770455;29;20055;-80
2021/10/21 00:16:43;;;;;;;9.13;4.10;;;9.80;99.90;;;;;;4759470;29;20059;-82
2021/10/21 00:19:11;;;;;;;4.20;2.90;;;9.80;99.90;;;;;;4785469;30;20417;-82
2021/10/21 00:21:38;;;;;;;3.90;3.40;;;9.90;99.90;;;;;;4751193;29;20066;-84
2021/10/21 00:24:06;;;;;;;12.57;2.92;;;10.00;99.90;;;;;;4786489;29;20051;-84
2021/10/21 00:26:34;;;;;;;3.58;3.25;;;10.20;99.90;;;;;;4771242;30;20047;-86
2021/10/21 00:29:02;;;;;;;5.53;3.65;;;10.20;99.90;;;;;;4772462;29;20506;-83
2021/10/21 00:31:29;;;;;;;4.35;2.85;;;10.20;99.90;;;;;;4772886;30;20458;-83
2021/10/21 00:33:57;;;;;;;4.65;4.30;;;10.00;99.90;;;;;;4771037;29;20062;-81
2021/10/21 00:36:25;;;;;;;3.75;3.00;;;9.80;99.90;;;;;;4770105;29;20078;-81
2021/10/21 00:38:53;;;;;;;2.80;2.58;;;9.60;99.90;;;;;;4753084;30;20056;-81
2021/10/21 00:41:21;;;;;;;2.80;2.60;;;9.40;99.90;;;;;;4769582;29;20043;-80
2021/10/21 00:44:08;;;;;;;4.38;3.83;;;9.40;99.90;;;;;;4768952;30;20524;-80
2021/10/21 00:46:36;;;;;;;7.18;3.33;;;9.30;99.90;;;;;;4764255;29;20043;-84
2021/10/21 00:49:06;;;;;;;2.75;2.55;;;9.30;99.90;;;;;;4780205;29;20406;-84
2021/10/21 00:51:36;;;;;;;4.07;2.72;;;9.30;99.90;;;;;;4801161;29;20071;-84
2021/10/21 00:54:04;;;;;;;5.20;3.75;;;9.40;99.90;;;;;;4764809;29;20050;-83
2021/10/21 00:56:32;;;;;;;4.07;3.53;;;9.40;99.90;;;;;;4784879;29;20064;-86
2021/10/21 00:59:02;;;;;;;3.50;2.60;;;9.40;99.90;;;;;;4770931;30;20051;-86
2021/10/21 01:01:32;;;;;;;3.92;3.50;;;9.50;99.90;;;;;;4786772;29;20059;-86
2021/10/21 01:04:02;;;;;;;3.05;2.80;;;9.60;99.90;;;;;;4791104;29;20055;-84
2021/10/21 01:06:30;;;;;;;3.72;3.03;;;9.60;99.90;;;;;;4762870;29;20458;-84
2021/10/21 01:08:58;;;;;;;4.20;2.70;;;9.90;99.90;;;;;;4776707;30;20048;-80
2021/10/21 01:11:26;;;;;;;3.55;3.25;;;10.00;99.90;;;;;;4753843;30;20059;-84
2021/10/21 01:13:54;;;;;;;3.92;2.70;;;10.00;99.90;;;;;;4737761;30;20044;-84
2021/10/21 01:16:22;;;;;;;3.00;2.72;;;10.00;99.90;;;;;;4746229;30;20043;-84
2021/10/21 01:18:50;;;;;;;4.45;3.53;;;10.00;99.90;;;;;;4756563;30;20054;-80
2021/10/21 01:21:17;;;;;;;3.33;3.13;;;9.90;99.90;;;;;;4774314;30;20043;-81
2021/10/21 01:23:45;;;;;;;7.30;5.10;;;9.90;99.90;;;;;;4765935;30;20055;-81
2021/10/21 01:26:14;;;;;;;3.42;3.13;;;9.80;99.90;;;;;;4768775;30;20051;-80
2021/10/21 01:28:42;;;;;;;3.92;3.38;;;9.80;99.90;;;;;;4769213;30;20126;-81
2021/10/21 01:31:10;;;;;;;5.65;3.28;;;10.10;99.90;;;;;;4767896;30;20482;-81
2021/10/21 01:33:38;;;;;;;5.32;3.00;;;10.10;99.90;;;;;;4762600;30;20048;-81
2021/10/21 01:36:13;;;;;;;4.57;4.05;;;10.10;99.90;;;;;;4759197;29;20072;-87
2021/10/21 01:38:41;;;;;;;3.13;2.38;;;9.80;99.90;;;;;;4795051;29;20122;-80
2021/10/21 01:41:09;;;;;;;4.00;3.60;;;9.80;99.90;;;;;;4764133;29;20506;-80
2021/10/21 01:43:46;;;;;;;4.90;3.17;;;9.80;99.90;;;;;;4739972;30;20052;-81
2021/10/21 01:46:13;;;;;;;4.68;2.95;;;9.90;99.90;;;;;;4749237;30;20506;-81
2021/10/21 01:48:41;;;;;;;4.53;4.13;;;9.90;99.90;;;;;;4783093;29;20062;-81
2021/10/21 01:51:09;;;;;;;3.60;3.17;;;9.90;99.90;;;;;;4770091;30;20063;-81
2021/10/21 01:53:37;;;;;;;4.35;3.20;;;9.90;99.90;;;;;;4769158;29;20055;-80
2021/10/21 01:56:05;;;;;;;4.10;2.80;;;9.80;99.90;;;;;;4786207;30;20047;-81
2021/10/21 01:58:33;;;;;;;4.15;3.85;;;10.00;99.90;;;;;;4749281;30;20044;-81
2021/10/21 02:01:01;;;;;;;2.70;2.50;;;10.10;99.90;;;;;;4737678;30;20055;-81
2021/10/21 02:03:29;;;;;;;3.50;3.13;;;10.20;99.90;;;;;;4750382;30;20063;-81
2021/10/21 02:05:57;;;;;;;4.10;3.80;;;10.10;99.90;;;;;;4755528;30;20060;-81
2021/10/21 02:08:25;;;;;;;4.63;3.55;;;9.90;99.90;;;;;;4752588;30;20047;-81
2021/10/21 02:10:54;;;;;;;3.45;2.80;;;9.80;99.90;;;;;;4767654;30;20050;-81
2021/10/21 02:13:22;;;;;;;2.60;2.35;;;9.70;99.90;;;;;;4768329;30;20059;-81
2021/10/21 02:15:50;;;;;;;3.10;2.80;;;9.50;99.90;;;;;;4755685;30;20055;-81
2021/10/21 02:18:18;;;;;;;5.75;2.80;;;9.40;99.90;;;;;;4781401;29;20047;-81
2021/10/21 02:20:45;;;;;;;4.38;2.70;;;9.30;99.90;;;;;;4758353;29;20058;-81
2021/10/21 02:23:13;;;;;;;6.03;3.83;;;9.20;99.90;;;;;;4775157;30;20051;-81
2021/10/21 02:25:46;;;;;;;3.53;3.00;;;9.30;99.90;;;;;;4722238;30;20058;-84
2021/10/21 02:28:14;;;;;;;4.25;2.90;;;9.70;99.90;;;;;;4739048;30;20066;-81
2021/10/21 02:30:42;;;;;;;3.67;3.17;;;9.90;99.90;;;;;;4768867;30;20525;-81
2021/10/21 02:33:10;;;;;;;3.17;2.38;;;9.70;99.90;;;;;;4755447;30;20422;-80
2021/10/21 02:35:38;;;;;;;5.22;2.58;;;9.70;99.90;;;;;;4787504;29;20059;-81
2021/10/21 02:38:06;;;;;;;3.67;3.35;;;9.90;99.90;;;;;;4740725;30;20059;-80
2021/10/21 02:40:37;;;;;;;5.25;3.65;;;10.00;99.90;;;;;;4725626;29;20082;-83
2021/10/21 02:43:05;;;;;;;4.53;3.85;;;9.50;99.90;;;;;;4739327;30;20056;-82
2021/10/21 02:45:33;;;;;;;3.00;2.70;;;9.00;99.90;;;;;;4735823;30;20056;-80
2021/10/21 02:48:01;;;;;;;3.63;2.65;;;8.90;99.90;;;;;;4758584;30;20059;-81
2021/10/21 02:50:29;;;;;;;3.85;3.40;;;8.80;99.90;;;;;;4725546;30;20074;-80
2021/10/21 02:53:03;;;;;;;3.80;3.38;;;8.90;99.90;;;;;;4740953;30;20055;-84
2021/10/21 02:55:31;;;;;;;2.38;2.17;;;9.10;99.90;;;;;;4740073;30;20090;-84
2021/10/21 02:58:05;;;;;;;4.63;3.50;;;9.20;99.90;;;;;;4784755;29;20067;-83
2021/10/21 03:00:37;;;;;;;3.97;3.15;;;9.50;99.90;;;;;;4747025;29;20051;-84
2021/10/21 03:03:07;;;;;;;3.67;3.22;;;9.90;99.90;;;;;;4751536;30;20082;-84
2021/10/21 03:05:35;;;;;;;3.42;3.08;;;10.10;99.90;;;;;;4773667;30;20056;-83
2021/10/21 03:08:03;;;;;;;3.58;3.15;;;9.90;99.90;;;;;;4751514;30;20056;-80
2021/10/21 03:10:30;;;;;;;3.50;3.20;;;9.80;99.90;;;;;;4737351;30;20055;-81
2021/10/21 03:12:58;;;;;;;3.50;3.20;;;9.70;99.90;;;;;;4739611;30;20060;-81
2021/10/21 03:15:26;;;;;;;4.40;4.03;;;9.70;99.90;;;;;;4752682;30;20498;-83
2021/10/21 03:17:55;;;;;;;3.33;2.53;;;9.90;99.90;;;;;;4784954;29;20047;-82
2021/10/21 03:20:24;;;;;;;5.13;3.03;;;10.20;99.90;;;;;;4768643;30;20047;-87
2021/10/21 03:22:52;;;;;;;3.80;2.83;;;10.10;99.90;;;;;;4739889;30;20071;-87
2021/10/21 03:25:22;;;;;;;6.23;2.53;;;10.70;99.90;;;;;;4743162;30;20491;-89
2021/10/21 03:28:00;;;;;;;2.92;2.65;;;11.50;99.90;;;;;;4761583;30;20296;-88
2021/10/21 03:30:28;;;;;;;3.28;2.35;;;11.90;99.90;;;;;;4767400;30;20074;-83
2021/10/21 03:32:58;;;;;;;6.85;2.95;;;12.20;99.90;;;;;;4756946;29;20050;-82
2021/10/21 03:35:26;;;;;;;3.50;3.00;;;12.10;99.90;;;;;;4758949;29;20043;-80
2021/10/21 03:37:54;;;;;;;3.38;2.92;;;12.10;99.90;;;;;;4742195;30;20050;-80
2021/10/21 03:40:21;;;;;;;3.70;2.28;;;12.00;99.90;;;;;;4782449;30;20066;-80
2021/10/21 03:42:49;;;;;;;4.25;2.67;;;11.90;99.90;;;;;;4784027;29;20043;-81
2021/10/21 03:45:17;;;;;;;4.22;3.08;;;11.90;99.90;;;;;;4771451;29;20054;-80
2021/10/21 03:47:45;;;;;;;3.58;2.85;;;12.00;99.90;;;;;;4786869;30;20366;-80
2021/10/21 03:50:15;;;;;;;2.95;2.72;;;11.90;99.90;;;;;;4751758;29;20058;-79
2021/10/21 03:52:43;;;;;;;2.85;2.08;;;12.20;99.90;;;;;;4771085;29;20058;-79
2021/10/21 03:55:23;;;;;;;4.43;1.85;;;12.20;99.90;;;;;;4760677;30;20399;-80
2021/10/21 03:58:01;;;;;;;2.38;2.20;;;12.30;99.90;;;;;;4754593;30;20052;-81
2021/10/21 04:00:32;;;;;;;8.88;2.35;;;12.30;99.90;;;;;;4771383;30;20052;-80
2021/10/21 04:03:00;;;;;;;6.70;3.22;;;12.30;99.90;;;;;;4736221;30;20059;-81
2021/10/21 04:05:35;;;;;;;2.05;1.80;;;12.30;99.90;;;;;;4768017;29;20513;-83
2021/10/21 04:08:14;;;;;;;3.00;2.55;;;12.20;99.90;;;;;;4764649;29;20410;-80
2021/10/21 04:10:44;;;;;;;2.67;2.47;;;12.30;99.90;;;;;;4791356;29;20101;-80
2021/10/21 04:13:13;;;;;;;2.85;2.53;;;12.20;99.90;;;;;;4780514;29;20062;-80
2021/10/21 04:15:41;;;;;;;4.03;2.33;;;12.20;99.90;;;;;;4798606;29;20066;-81
2021/10/21 04:18:09;;;;;;;5.60;2.35;;;12.20;99.90;;;;;;4753877;30;20052;-80
2021/10/21 04:20:37;;;;;;;3.72;2.70;;;12.00;99.90;;;;;;4776564;29;20071;-80
2021/10/21 04:23:07;;;;;;;3.60;2.13;;;12.20;99.90;;;;;;4770879;30;20478;-80
2021/10/21 04:25:35;;;;;;;8.05;3.15;;;12.50;99.90;;;;;;4782687;29;20059;-79
2021/10/21 04:28:16;;;;;;;2.33;2.13;;;12.80;99.90;;;;;;4769517;30;20054;-82
2021/10/21 04:30:44;;;;;;;;;;;12.90;99.90;;;;;;4760934;30;20048;-82
2021/10/21 04:33:12;;;;;;;4.25;2.28;;;12.90;99.90;;;;;;4784402;29;19929;-81
2021/10/21 04:35:40;;;;;;;3.35;3.05;;;13.00;99.90;;;;;;4771103;29;20046;-81
2021/10/21 04:38:07;;;;;;;2.85;2.10;;;13.00;99.90;;;;;;4755272;30;20510;-79
2021/10/21 04:40:35;;;;;;;3.00;2.00;;;13.10;99.90;;;;;;4781945;29;20055;-81
2021/10/21 04:43:03;;;;;;;2.90;2.33;;;13.00;99.90;;;;;;4771169;30;20505;-84
2021/10/21 04:45:44;;;;;;;3.03;2.72;;;13.00;99.90;;;;;;4775103;29;20055;-83
2021/10/21 04:48:23;;;;;;;2.40;2.20;;;12.90;99.90;;;;;;4776603;29;20055;-82
2021/10/21 04:50:53;;;;;;;2.95;2.10;;;12.80;99.90;;;;;;4770044;29;20062;-81
2021/10/21 04:53:20;;;;;;;2.58;2.28;;;12.70;99.90;;;;;;4790692;29;20094;-79
2021/10/21 04:55:48;;;;;;;4.07;2.95;;;12.60;99.90;;;;;;4793646;29;20464;-81
2021/10/21 04:58:16;;;;;;;2.00;1.70;;;12.50;99.90;;;;;;4776264;29;20394;-81
2021/10/21 05:00:43;;;;;;;4.65;3.58;;;12.50;99.90;;;;;;4764940;29;20054;-81
2021/10/21 05:03:13;;;;;;;3.05;2.72;;;12.30;99.90;;;;;;4761700;30;20056;-81
2021/10/21 05:05:41;;;;;;;3.55;3.25;;;12.30;99.90;;;;;;4789850;29;20498;-81
2021/10/21 05:08:09;;;;;;;5.97;3.35;;;12.20;99.90;;;;;;4787203;30;20051;-81
2021/10/21 05:10:37;;;;;;;6.43;2.42;;;12.10;99.90;;;;;;4791545;29;20426;-81
2021/10/21 05:13:05;;;;;;;4.80;2.40;;;12.20;99.90;;;;;;4786307;29;20067;-81
2021/10/21 05:15:32;;;;;;;3.17;2.92;;;12.10;99.90;;;;;;4778599;29;20063;-81
2021/10/21 05:18:01;;;;;;;4.65;2.22;;;12.10;99.90;;;;;;4769764;30;20044;-81
2021/10/21 05:20:29;;;;;;;13.77;3.08;;;12.10;99.90;;;;;;4763193;29;20066;-80
2021/10/21 05:22:57;;;;;;;9.43;2.25;;;12.10;99.90;;;;;;4750261;30;20494;-82
2021/10/21 05:25:25;;;;;;;7.78;3.97;;;12.10;99.90;;;;;;4777339;29;20069;-80
2021/10/21 05:27:53;;;;;;;11.65;3.65;;;12.10;99.90;;;;;;4787106;29;20466;-80
2021/10/21 05:30:22;;;;;;;4.70;2.67;;;12.10;99.90;;;;;;4770352;30;20775;-80
2021/10/21 05:32:50;;;;;;;4.95;2.47;;;12.30;99.90;;;;;;4787211;29;20050;-79
2021/10/21 05:35:17;;;;;;;3.95;2.72;;;12.40;99.90;;;;;;4772127;29;20047;-80
2021/10/21 05:37:45;;;;;;;3.40;2.65;;;12.50;99.90;;;;;;4790765;29;20054;-81
2021/10/21 05:40:13;;;;;;;7.80;2.70;;;12.50;99.90;;;;;;4784620;30;20051;-82
2021/10/21 05:42:41;;;;;;;5.30;3.88;;;12.50;99.90;;;;;;4768731;30;20431;-82
2021/10/21 05:45:09;;;;;;;3.53;2.25;;;12.50;99.90;;;;;;4783694;29;20532;-82
2021/10/21 05:47:38;;;;;;;4.25;3.65;;;12.50;99.90;;;;;;4785471;29;20498;-82
2021/10/21 05:50:05;;;;;;;7.88;2.22;;;12.60;99.90;;;;;;4768091;30;20059;-82
2021/10/21 05:52:33;;;;;;;6.38;3.15;;;12.80;99.90;;;;;;4768954;29;20047;-82
2021/10/21 05:55:02;;;;;;;7.82;3.97;;;12.70;99.90;;;;;;4753957;30;20055;-82
2021/10/21 05:57:30;;;;;;;5.47;2.13;;;12.60;99.90;;;;;;4754193;30;20055;-82
2021/10/21 05:59:58;;;;;;;4.25;3.72;;;12.60;99.90;;;;;;4782737;29;20063;-83
2021/10/21 06:02:30;;;;;;;3.30;2.63;;;12.50;99.90;;;;;;4768083;30;20056;-88
2021/10/21 06:04:58;;;;;;;4.85;2.97;;;12.50;99.90;;;;;;4753172;30;20044;-81
2021/10/21 06:07:25;;;;;;;4.75;2.85;;;12.60;99.90;;;;;;4751164;30;20060;-82
2021/10/21 06:09:57;;;;;;;2.67;2.35;;;12.70;99.90;;;;;;4751235;30;20076;-82
2021/10/21 06:12:25;;;;;;;11.57;3.00;;;12.60;99.90;;;;;;4752769;30;20052;-80
2021/10/21 06:14:53;;;;;;;4.05;2.90;;;12.60;99.90;;;;;;4763016;30;20059;-80
2021/10/21 06:17:23;;;;;;;6.63;3.67;;;12.60;99.90;;;;;;4758407;29;20050;-80
2021/10/21 06:19:51;;;;;;;4.43;3.50;;;12.70;99.90;;;;;;4764154;29;20062;-80
2021/10/21 06:22:19;;;;;;;9.45;5.35;;;12.80;99.90;;;;;;4768805;29;20490;-82
2021/10/21 06:24:47;;;;;;;5.05;2.47;;;12.80;99.90;;;;;;4771436;29;20058;-81
2021/10/21 06:27:17;;;;;;;4.90;2.85;;;12.90;99.90;;;;;;4788187;29;20054;-82
2021/10/21 06:29:46;;;;;;;4.25;3.45;;;13.00;99.90;;;;;;4784459;29;20516;-84
2021/10/21 06:32:28;;;;;;;4.20;3.80;;;13.20;99.90;;;;;;4773144;29;20054;-83
2021/10/21 06:35:45;;;;;;;4.63;4.15;;;13.40;99.90;;;;;;4768600;29;20047;-81
2021/10/21 06:38:21;;;;;;;5.88;3.78;;;13.40;99.90;;;;;;4791872;29;20066;-88
2021/10/21 06:40:54;;;;;;;7.38;3.50;;;13.60;99.90;;;;;;4799703;29;20416;-86
2021/10/21 06:43:35;;;;;;;7.57;3.72;;;13.50;99.90;;;;;;4788680;29;20062;-84
2021/10/21 06:46:17;;;;;;;7.47;3.22;;;13.60;99.90;;;;;;4803400;29;20065;-85
2021/10/21 06:50:22;;;;;;;;;;;;;;;;;;;;;
2021/10/21 06:53:27;;;;;;;3.00;2.67;;;13.50;99.90;;;;;;4718285;30;20048;-86
2021/10/21 06:56:04;;;;;;;2.08;1.92;;;13.30;99.90;;;;;;4733745;30;20196;-82
2021/10/21 06:59:19;;;;;;;1.38;1.08;;;13.10;99.90;;;;;;4720544;30;20052;-83
2021/10/21 07:02:14;;;;;;;4.35;1.33;;;12.80;99.90;;;;;;4733933;30;20056;-85
2021/10/21 07:05:01;;;;;;;11.27;1.98;;;12.80;99.90;;;;;;4708331;30;20055;-82
2021/10/21 07:07:57;;;;;;;5.82;1.45;;;12.80;99.90;;;;;;4736006;30;20055;-84
2021/10/21 07:10:28;;;;;;;9.73;1.55;;;13.00;99.90;;;;;;4750584;30;20047;-82
2021/10/21 07:13:02;;;;;;;1.30;0.88;;;13.00;99.90;;;;;;4752006;29;20546;-87
2021/10/21 07:16:11;;;;;;;1.20;1.10;;;13.00;99.90;;;;;;4730797;30;20430;-85
2021/10/21 07:18:39;;;;;;;0.98;0.98;;;13.00;99.90;;;;;;4730188;30;20301;-84
2021/10/21 07:21:11;;;;;;;0.95;0.90;;;13.00;99.90;;;;;;4710633;29;20067;-83
2021/10/21 07:23:40;;;;;;;1.27;1.17;;;13.00;99.90;;;;;;4751041;30;20063;-85
2021/10/21 07:26:09;;;;;;;1.40;1.30;;;13.00;99.90;;;;;;4737968;30;20071;-86
2021/10/21 07:28:43;;;;;;;0.73;0.73;;;12.80;99.90;;;;;;4745835;30;20083;-83
2021/10/21 07:31:16;;;;;;;1.45;0.60;;;12.70;99.90;;;;;;4748067;30;20132;-84
2021/10/21 07:33:45;;;;;;;1.25;1.10;;;12.70;99.90;;;;;;4747248;30;20044;-82
2021/10/21 07:36:35;;;;;;;0.82;0.65;;;12.70;99.90;;;;;;4758883;29;20059;-83
2021/10/21 07:39:06;;;;;;;4.57;0.80;;;12.80;99.90;;;;;;4756606;29;20082;-82
2021/10/21 07:41:35;;;;;;;1.77;0.60;;;12.80;99.90;;;;;;4767181;30;20044;-82
2021/10/21 07:44:12;;;;;;;0.40;0.40;;;12.80;99.90;;;;;;4766423;30;20059;-82
2021/10/21 07:46:47;;;;;;;1.85;0.63;;;12.90;99.90;;;;;;4738333;30;20506;-83
2021/10/21 07:49:15;;;;;;;0.82;0.70;;;13.00;99.90;;;;;;4757917;30;20065;-81
2021/10/21 07:51:44;;;;;;;0.55;0.55;;;12.80;99.90;;;;;;4773324;29;20513;-82
2021/10/21 07:54:15;;;;;;;1.02;1.00;;;12.90;99.90;;;;;;4773985;29;20051;-82
2021/10/21 07:57:01;;;;;;;1.83;0.88;;;13.00;99.90;;;;;;4743569;29;20051;-85
2021/10/21 07:59:30;;;;;;;0.50;0.50;;;13.00;99.90;;;;;;4754156;30;20429;-83
2021/10/21 08:02:04;;;;;;;0.50;0.50;;;12.90;99.90;;;;;;4785886;29;20050;-83
2021/10/21 08:04:53;;;;;;;2.47;0.68;;;13.00;99.90;;;;;;4778294;29;20050;-83
2021/10/21 08:07:32;;;;;;;0.90;0.60;;;13.00;99.90;;;;;;4773678;29;20078;-88
2021/10/21 08:10:03;;;;;;;0.75;0.50;;;12.90;99.90;;;;;;4771438;29;20062;-87
2021/10/21 08:13:00;;;;;;;1.20;0.93;;;12.90;99.90;;;;;;4790626;29;20047;-84
2021/10/21 08:15:54;;;;;;;0.90;0.75;;;12.80;99.90;;;;;;4759286;30;20052;-82
2021/10/21 08:18:29;;;;;;;2.50;0.70;;;12.80;99.90;;;;;;4778855;29;20040;-83
2021/10/21 08:21:06;;;;;;;0.65;0.65;;;12.70;99.90;;;;;;4790688;29;20409;-84
2021/10/21 08:23:50;;;;;;;2.28;0.57;;;12.60;99.90;;;;;;4771190;30;20489;-83
2021/10/21 08:26:27;;;;;;;0.85;0.85;;;12.70;99.90;;;;;;4757345;30;20505;-84
2021/10/21 08:28:56;;;;;;;0.77;0.68;;;12.70;99.90;;;;;;4771523;29;20398;-87
2021/10/21 08:31:38;;;;;;;3.53;0.80;;;12.70;99.90;;;;;;4801012;29;20051;-83
2021/10/21 08:34:07;;;;;;;1.10;0.93;;;12.80;99.90;;;;;;4788236;29;20078;-84
2021/10/21 08:36:35;;;;;;;1.95;0.70;;;12.80;99.90;;;;;;4772270;29;20062;-83
2021/10/21 08:39:07;;;;;;;0.57;0.57;;;12.80;99.90;;;;;;4786869;30;20501;-84
2021/10/21 08:41:38;;;;;;;1.50;1.25;;;12.80;99.90;;;;;;4771686;30;20058;-81
2021/10/21 08:44:07;;;;;;;1.88;1.77;;;12.80;99.90;;;;;;4774339;29;20051;-83
2021/10/21 08:46:36;;;;;;;0.73;0.70;;;13.00;99.90;;;;;;4789760;29;20405;-81
2021/10/21 08:49:06;;;;;;;;;;;13.00;99.90;;;;;;4773448;30;20051;-83
2021/10/21 08:51:34;;;;;;;2.25;0.63;;;13.10;99.90;;;;;;4787589;29;20651;-82
2021/10/21 08:54:06;;;;;;;1.83;0.80;;;13.20;99.90;;;;;;4771119;30;20067;-83
2021/10/21 08:56:34;;;;;;;2.17;0.80;;;13.30;99.90;;;;;;4756354;29;20055;-83
2021/10/21 08:59:06;;;;;;;1.90;1.48;;;13.20;99.90;;;;;;4771266;30;20059;-84
2021/10/21 09:01:44;;;;;;;13.32;1.42;;;13.20;99.90;;;;;;4787619;29;20047;-82
2021/10/21 09:04:20;;;;;;;4.38;0.65;;;13.10;99.90;;;;;;4757046;30;20060;-87
2021/10/21 09:09:30;;;;;;;1.00;0.70;;;13.00;99.90;;;;;;4771157;30;20387;-85
2021/10/21 09:12:08;;;;;;;0.77;0.77;;;13.10;99.90;;;;;;4787843;30;20051;-87
2021/10/21 09:14:41;;;;;;;1.02;0.90;;;13.20;99.90;;;;;;4755638;30;20396;-86
2021/10/21 09:17:12;;;;;;;1.50;1.05;;;13.40;99.90;;;;;;4770678;30;20040;-87
2021/10/21 09:19:42;;;;;;;4.03;1.40;;;13.30;99.90;;;;;;4788237;30;20504;-85
2021/10/21 09:22:28;;;;;;;1.40;0.85;;;13.30;99.90;;;;;;4759701;30;20074;-88
2021/10/21 09:25:07;;;;;;;2.47;0.80;;;13.40;99.90;;;;;;4754578;29;20047;-82
2021/10/21 09:27:45;;;;;;;1.40;0.88;;;13.40;99.90;;;;;;4792465;29;20761;-85
2021/10/21 09:30:26;;;;;;;8.93;1.80;;;13.40;99.90;;;;;;4781168;29;20055;-86
2021/10/21 09:33:05;;;;;;;2.40;1.38;;;13.40;99.90;;;;;;4771214;29;20044;-85
2021/10/21 09:35:55;;;;;;;1.45;1.38;;;13.50;99.90;;;;;;4778527;29;20051;-82
2021/10/21 09:38:28;;;;;;;1.08;0.80;;;13.60;99.90;;;;;;4786777;29;20505;-81
2021/10/21 09:41:19;;;;;;;7.53;2.45;;;13.60;99.90;;;;;;4786740;29;20508;-86
2021/10/21 09:43:54;;;;;;;13.00;4.72;;;13.60;99.90;;;;;;4784297;29;20070;-87
2021/10/21 09:46:59;;;;;;;1.67;1.00;;;13.70;99.90;;;;;;4778213;30;20412;-84
2021/10/21 09:49:47;;;;;;;5.53;2.85;;;13.70;99.90;;;;;;4777992;29;20051;-82
2021/10/21 09:52:22;;;;;;;1.10;0.90;;;13.70;99.90;;;;;;4800815;29;20058;-83
2021/10/21 09:54:52;;;;;;;18.92;1.88;;;13.70;99.90;;;;;;4777145;29;20498;-85
2021/10/21 09:57:31;;;;;;;11.57;1.35;;;13.70;99.90;;;;;;4755282;30;20040;-82
2021/10/21 10:00:19;;;;;;;2.75;0.82;;;13.60;99.90;;;;;;4758744;30;20055;-87
2021/10/21 10:02:52;;;;;;;43.95;5.45;;;13.60;99.90;;;;;;4784932;29;20424;-88
2021/10/21 10:05:45;;;;;;;4.68;2.22;;;13.50;99.90;;;;;;4803998;29;20058;-90
2021/10/21 10:08:29;;;;;;;4.63;1.30;;;13.40;99.90;;;;;;4785499;29;20047;-84
2021/10/21 10:11:03;;;;;;;8.30;1.25;;;13.40;99.90;;;;;;4741407;30;20429;-87
2021/10/21 10:13:39;;;;;;;5.15;0.98;;;13.30;99.90;;;;;;4749711;30;20418;-90
2021/10/21 10:17:03;;;;;;;2.83;1.38;;;13.30;99.90;;;;;;4741803;30;20532;-89
2021/10/21 10:19:33;;;;;;;3.25;1.23;;;13.30;99.90;;;;;;4734887;30;20048;-86
2021/10/21 10:29:04;;;;;;;3.37;0.90;;;13.80;99.90;;;;;;4735280;30;20791;-85
2021/10/21 10:31:44;;;;;;;2.92;0.82;;;13.70;99.90;;;;;;4724500;30;20309;-84
2021/10/21 10:34:44;;;;;;;1.58;0.82;;;13.80;99.90;;;;;;4737244;30;20513;-84
2021/10/21 10:37:16;;;;;;;2.47;0.70;;;14.00;99.90;;;;;;4734291;30;20063;-79
2021/10/21 10:39:51;;;;;;;5.70;1.73;;;14.20;99.90;;;;;;4751795;30;20086;-80
2021/10/21 10:42:32;;;;;;;8.00;1.70;;;14.30;99.90;;;;;;4754169;30;20055;-82
2021/10/21 10:45:08;;;;;;;14.50;1.75;;;14.10;99.30;;;;;;4767295;30;20055;-81
2021/10/21 10:47:48;;;;;;;31.58;1.52;;;14.00;99.10;;;;;;4767880;30;20067;-81
2021/10/21 10:50:33;;;;;;;6.32;0.70;;;13.90;99.90;;;;;;4734680;30;20067;-82
2021/10/21 10:53:07;;;;;;;3.95;1.30;;;14.00;99.40;;;;;;4738426;30;20047;-81
2021/10/21 10:55:41;;;;;;;5.03;2.03;;;13.90;98.70;;;;;;4771723;30;20062;-82
2021/10/21 10:58:23;;;;;;;3.20;1.80;;;14.00;98.30;;;;;;4749736;30;20052;-80
2021/10/21 11:01:00;;;;;;;7.82;1.33;;;13.90;99.30;;;;;;4747330;30;20048;-80
2021/10/21 11:03:36;;;;;;;1.23;0.68;;;14.00;99.90;;;;;;4765491;30;20056;-82
2021/10/21 11:06:16;;;;;;;1.63;0.98;;;14.20;99.90;;;;;;4732741;30;20056;-82
2021/10/21 11:09:06;;;;;;;3.58;0.82;;;14.20;99.50;;;;;;4731621;30;20221;-83
2021/10/21 11:11:52;;;;;;;4.55;1.30;;;13.90;98.90;;;;;;4732012;30;20052;-81
2021/10/21 11:14:37;;;;;;;15.35;3.22;;;14.00;99.70;;;;;;4717314;30;20052;-80
2021/10/21 11:17:08;;;;;;;6.22;1.92;;;14.00;98.90;;;;;;4761198;30;20051;-82
2021/10/21 11:19:43;;;;;;;2.92;0.80;;;13.90;97.90;;;;;;4745947;30;20066;-82
2021/10/21 11:22:34;;;;;;;3.60;1.27;;;14.10;99.90;;;;;;4772400;29;20075;-81
2021/10/21 11:25:12;;;;;;;3.80;1.05;;;14.10;97.70;;;;;;4759378;30;20043;-84
2021/10/21 11:27:55;;;;;;;6.32;1.10;;;14.00;98.20;;;;;;4740571;30;20061;-85
2021/10/21 11:30:32;;;;;;;1.30;0.73;;;13.70;98.90;;;;;;4746159;30;20036;-83
2021/10/21 11:33:20;;;;;;;4.18;0.85;;;13.40;99.90;;;;;;4732396;30;20063;-80
2021/10/21 11:35:50;;;;;;;7.43;1.27;;;13.40;99.30;;;;;;4756514;30;20047;-80
2021/10/21 11:38:22;;;;;;;3.30;1.25;;;13.30;98.20;;;;;;4751828;30;20434;-87
2021/10/21 11:40:58;;;;;;;3.85;2.38;;;13.30;98.60;;;;;;4766929;30;20047;-78
2021/10/21 11:43:40;;;;;;;4.00;1.42;;;13.30;98.60;;;;;;4737017;30;20056;-83
2021/10/21 11:46:15;;;;;;;1.85;1.05;;;13.40;99.40;;;;;;4751562;30;20044;-80
2021/10/21 11:48:43;;;;;;;3.20;0.90;;;13.70;99.10;;;;;;4736826;30;20072;-79
2021/10/21 11:51:13;;;;;;;2.10;1.10;;;14.00;98.80;;;;;;4767359;30;20047;-82
2021/10/21 11:53:41;;;;;;;2.08;0.65;;;14.20;99.20;;;;;;4751097;30;20056;-81
2021/10/21 11:56:10;;;;;;;3.67;1.85;;;14.40;99.10;;;;;;4767500;30;20060;-80
2021/10/21 11:58:40;;;;;;;0.65;0.45;;;14.70;98.30;;;;;;4752969;30;20056;-82
2021/10/21 12:01:12;;;;;;;2.55;1.00;;;14.80;98.20;;;;;;4769204;30;20051;-82
2021/10/21 12:03:45;;;;;;;3.63;0.65;;;14.90;96.00;;;;;;4754363;30;20044;-81
2021/10/21 12:06:15;;;;;;;1.15;0.68;;;15.00;95.50;;;;;;4722850;30;20056;-82
2021/10/21 12:08:50;;;;;;;3.85;0.77;;;14.90;95.40;;;;;;4737030;30;20509;-79
2021/10/21 12:11:19;;;;;;;0.80;0.80;;;14.90;96.10;;;;;;4723281;30;20418;-79
2021/10/21 12:13:47;;;;;;;6.82;1.05;;;14.90;94.80;;;;;;4736942;30;20048;-80
2021/10/21 12:16:22;;;;;;;6.03;0.82;;;14.90;93.80;;;;;;4737142;30;20388;-79
2021/10/21 12:19:00;;;;;;;4.43;0.70;;;15.00;94.60;;;;;;4748973;30;20651;-84
2021/10/21 12:21:42;;;;;;;3.30;0.82;;;14.90;94.00;;;;;;4746414;30;20338;-82
2021/10/21 12:24:21;;;;;;;0.98;0.95;;;14.90;95.30;;;;;;4737049;30;20068;-78
2021/10/21 12:26:57;;;;;;;7.07;0.80;;;14.90;94.60;;;;;;4752262;30;20056;-79
2021/10/21 12:29:41;;;;;;;5.30;0.80;;;15.00;95.10;;;;;;4742460;30;20063;-80
2021/10/21 12:32:15;;;;;;;13.13;2.15;;;15.10;93.30;;;;;;4736609;30;20063;-79
2021/10/21 12:34:44;;;;;;;7.15;1.02;;;15.10;92.10;;;;;;4757139;30;20148;-82
2021/10/21 12:37:16;;;;;;;0.90;0.90;;;15.00;90.20;;;;;;4739180;30;20048;-79
2021/10/21 12:39:44;;;;;;;7.93;2.90;;;15.00;93.00;;;;;;4769489;30;20059;-79
2021/10/21 12:42:23;;;;;;;5.60;1.05;;;15.10;93.20;;;;;;4747296;30;20048;-81
2021/10/21 12:44:56;;;;;;;6.80;2.55;;;15.00;91.90;;;;;;4769493;30;20059;-78
2021/10/21 12:47:29;;;;;;;0.82;0.82;;;14.90;92.20;;;;;;4768903;30;20058;-80
2021/10/21 12:50:15;;;;;;;0.73;0.73;;;15.00;92.20;;;;;;4765764;30;20064;-80
2021/10/21 12:52:46;;;;;;;3.50;0.85;;;14.80;90.90;;;;;;4736492;30;20499;-82
2021/10/21 12:55:31;;;;;;;2.97;2.00;;;14.80;90.80;;;;;;4751186;30;20059;-82
2021/10/21 12:58:09;;;;;;;3.28;1.38;;;14.70;92.40;;;;;;4735555;30;20465;-79
2021/10/21 13:00:48;;;;;;;2.00;0.90;;;14.80;92.60;;;;;;4755977;29;20059;-80
2021/10/21 13:03:25;;;;;;;0.60;0.60;;;14.90;91.40;;;;;;4757287;30;20052;-81
2021/10/21 13:05:57;;;;;;;1.05;0.95;;;14.80;91.10;;;;;;4753599;30;20047;-81
2021/10/21 13:08:28;;;;;;;1.85;0.80;;;14.90;89.00;;;;;;4753792;30;20055;-84
2021/10/21 13:10:56;;;;;;;1.50;0.88;;;14.80;88.80;;;;;;4741525;30;20070;-79
2021/10/21 13:13:34;;;;;;;4.18;1.15;;;14.90;90.00;;;;;;4774128;30;20058;-81
2021/10/21 13:16:07;;;;;;;6.78;1.20;;;15.00;86.60;;;;;;4769262;30;20086;-87
2021/10/21 13:18:36;;;;;;;1.60;0.40;;;14.90;86.60;;;;;;4769282;30;20056;-82
2021/10/21 13:21:05;;;;;;;1.08;0.73;;;15.00;87.00;;;;;;4753146;30;20059;-91
2021/10/21 13:23:34;;;;;;;1.95;0.45;;;15.00;90.00;;;;;;4738851;30;20064;-89
2021/10/21 13:26:04;;;;;;;;;;;14.90;87.60;;;;;;4727187;30;20061;-90
2021/10/21 13:28:32;;;;;;;1.00;0.65;;;14.90;86.60;;;;;;4737221;30;19926;-85
2021/10/21 13:31:00;;;;;;;2.00;0.82;;;14.80;83.30;;;;;;4741843;30;20050;-89
2021/10/21 13:33:28;;;;;;;2.10;1.25;;;14.70;85.80;;;;;;4767740;30;20064;-88